Time;durP1;ratioP1;P1;durP2;ratioP2;P2;SDS_P1;SDS_P2;PMS_P1;PMS_P2;Temp;Humidity;BMP_temperature;BMP_pressure;BME280_temperature;BME280_humidity;BME280_pressure;Samples;Min_cycle;Max_cycle;Signal;HPM_P1;HPM_P2
2024/01/25 00:02:19;;;;;;;0.93;0.93;;;;;;;-1.25;100.00;98065.78;4859453;29;20435;-89
2024/01/25 00:04:46;;;;;;;1.13;1.13;;;;;;;-1.27;100.00;98060.66;4887574;29;20139;-88
2024/01/25 00:07:17;;;;;;;0.90;0.90;;;;;;;-1.31;100.00;98052.28;4865286;29;20048;-88
2024/01/25 00:09:48;;;;;;;1.00;1.00;;;;;;;-1.31;100.00;98059.44;4896086;29;20056;-88
2024/01/25 00:12:16;;;;;;;0.95;0.95;;;;;;;-1.27;100.00;98049.25;4896951;29;20067;-88
2024/01/25 00:14:43;;;;;;;1.10;1.10;;;;;;;-1.26;100.00;98053.56;4897907;29;20060;-90
2024/01/25 00:17:12;;;;;;;1.10;1.10;;;;;;;-1.29;100.00;98056.56;4880544;29;20061;-89
2024/01/25 00:19:40;;;;;;;1.10;1.10;;;;;;;-1.28;100.00;98047.63;4885620;29;20088;-90
2024/01/25 00:22:08;;;;;;;1.00;1.00;;;;;;;-1.28;100.00;98048.44;4859455;29;20068;-90
2024/01/25 00:24:36;;;;;;;1.00;1.00;;;;;;;-1.26;100.00;98041.13;4859441;29;20145;-88
2024/01/25 00:27:04;;;;;;;0.90;0.90;;;;;;;-1.27;100.00;98028.06;4843343;29;20056;-89
2024/01/25 00:29:34;;;;;;;0.90;0.90;;;;;;;-1.31;100.00;98030.31;4842789;29;20057;-89
2024/01/25 00:32:01;;;;;;;1.05;1.05;;;;;;;-1.34;100.00;98012.97;4860457;29;20118;-88
2024/01/25 00:34:29;;;;;;;1.00;1.00;;;;;;;-1.33;100.00;98024.38;4842284;29;20060;-89
2024/01/25 00:36:58;;;;;;;1.00;1.00;;;;;;;-1.34;100.00;98012.16;4849362;29;20106;-90
2024/01/25 00:39:26;;;;;;;1.00;1.00;;;;;;;-1.35;100.00;98015.81;4858132;29;20117;-92
2024/01/25 00:41:58;;;;;;;1.00;1.00;;;;;;;-1.37;100.00;98004.59;4862037;29;20624;-90
2024/01/25 00:44:28;;;;;;;;;;;;;;;-1.41;100.00;98009.47;4849579;29;20088;-89
2024/01/25 00:46:56;;;;;;;1.10;1.10;;;;;;;-1.44;100.00;98012.50;4862150;29;19928;-89
2024/01/25 00:49:24;;;;;;;0.90;0.90;;;;;;;-1.43;100.00;98008.81;4860195;29;20053;-89
2024/01/25 00:51:59;;;;;;;1.00;1.00;;;;;;;-1.45;100.00;98016.13;4879237;29;20090;-88
2024/01/25 00:54:29;;;;;;;0.90;0.90;;;;;;;-1.48;100.00;98002.47;4860149;29;20113;-88
2024/01/25 00:56:57;;;;;;;0.90;0.90;;;;;;;-1.52;100.00;98009.97;4861724;29;20152;-89
2024/01/25 00:59:28;;;;;;;1.00;1.00;;;;;;;-1.47;100.00;97996.97;4861744;29;20581;-89
2024/01/25 01:02:01;;;;;;;1.00;1.00;;;;;;;-1.46;100.00;97997.81;4893276;29;20049;-88
2024/01/25 01:04:36;;;;;;;1.10;1.10;;;;;;;-1.45;100.00;97989.66;4868634;29;20500;-88
2024/01/25 01:07:15;;;;;;;0.90;0.90;;;;;;;-1.47;100.00;97996.97;4861783;29;20089;-87
2024/01/25 01:09:43;;;;;;;1.00;1.00;;;;;;;-1.47;100.00;97991.69;4863457;29;20057;-87
2024/01/25 01:12:14;;;;;;;0.90;0.90;;;;;;;-1.47;100.00;97988.22;4845296;29;20122;-89
2024/01/25 01:14:42;;;;;;;0.88;0.88;;;;;;;-1.47;100.00;97973.16;4858186;29;20053;-87
2024/01/25 01:17:09;;;;;;;0.90;0.90;;;;;;;-1.48;100.00;97973.38;4861029;29;20053;-87
2024/01/25 01:19:37;;;;;;;0.90;0.90;;;;;;;-1.47;100.00;97972.34;4844561;29;20496;-87
2024/01/25 01:22:09;;;;;;;0.80;0.80;;;;;;;-1.48;100.00;97962.78;4844036;29;20053;-87
2024/01/25 01:24:42;;;;;;;0.80;0.80;;;;;;;-1.47;100.00;97964.41;4844374;29;20533;-87
2024/01/25 01:27:14;;;;;;;1.08;1.08;;;;;;;-1.48;100.00;97971.53;4874730;29;20057;-87
2024/01/25 01:29:43;;;;;;;0.95;0.95;;;;;;;-1.59;100.00;97948.25;4879661;29;20067;-87
2024/01/25 01:32:10;;;;;;;1.00;1.00;;;;;;;-1.54;100.00;97959.09;4879265;29;20148;-87
2024/01/25 01:34:38;;;;;;;1.00;1.00;;;;;;;-1.51;100.00;97965.81;4879309;29;20171;-89
2024/01/25 01:37:08;;;;;;;0.98;0.98;;;;;;;-1.48;100.00;97962.78;4863204;29;20049;-87
2024/01/25 01:39:38;;;;;;;1.00;1.00;;;;;;;-1.50;100.00;97970.91;4879277;29;20143;-84
2024/01/25 01:42:05;;;;;;;0.90;0.90;;;;;;;-1.55;100.00;97947.66;4861490;29;20135;-88
2024/01/25 01:44:33;;;;;;;1.10;1.10;;;;;;;-1.55;100.00;97960.88;4869653;29;20050;-89
2024/01/25 01:47:01;;;;;;;1.02;1.02;;;;;;;-1.56;100.00;97945.22;4868509;29;20068;-88
2024/01/25 01:49:29;;;;;;;0.90;0.90;;;;;;;-1.59;100.00;97938.50;4860577;29;20054;-88
2024/01/25 01:51:57;;;;;;;0.90;0.90;;;;;;;-1.62;100.00;97949.47;4853140;29;20132;-89
2024/01/25 01:54:29;;;;;;;1.00;1.00;;;;;;;-1.57;100.00;97938.28;4862638;29;20083;-87
2024/01/25 01:56:57;;;;;;;0.95;0.95;;;;;;;-1.60;100.00;97938.66;4872113;29;20050;-88
2024/01/25 01:59:25;;;;;;;1.00;1.00;;;;;;;-1.59;100.00;97940.31;4873139;29;20097;-87
2024/01/25 02:01:52;;;;;;;1.00;1.00;;;;;;;-1.60;100.00;97936.84;4853189;29;20079;-87
2024/01/25 02:04:20;;;;;;;1.10;1.10;;;;;;;-1.61;100.00;97937.84;4859033;29;20053;-84
2024/01/25 02:06:48;;;;;;;0.95;0.95;;;;;;;-1.61;100.00;97943.16;4843549;29;20060;-85
2024/01/25 02:09:16;;;;;;;1.00;1.00;;;;;;;-1.66;100.00;97934.16;4860044;29;20065;-86
2024/01/25 02:11:46;;;;;;;1.00;1.00;;;;;;;-1.66;100.00;97928.88;4859771;29;20061;-86
2024/01/25 02:14:14;;;;;;;1.10;1.10;;;;;;;-1.68;100.00;97939.63;4843221;29;20053;-84
2024/01/25 02:16:45;;;;;;;0.85;0.85;;;;;;;-1.71;100.00;97925.97;4859975;29;20053;-85
2024/01/25 02:19:13;;;;;;;1.00;1.00;;;;;;;-1.72;100.00;97924.31;4843516;29;20061;-85
2024/01/25 02:21:41;;;;;;;0.90;0.90;;;;;;;-1.69;100.00;97937.19;4843462;29;20053;-85
2024/01/25 02:24:11;;;;;;;1.00;1.00;;;;;;;-1.72;100.00;97929.63;4843733;29;20053;-86
2024/01/25 02:26:40;;;;;;;0.90;0.90;;;;;;;-1.73;100.00;97933.28;4859853;29;20061;-86
2024/01/25 02:29:12;;;;;;;0.98;0.98;;;;;;;-1.75;100.00;97921.09;4860203;29;20129;-86
2024/01/25 02:31:42;;;;;;;0.88;0.88;;;;;;;-1.81;100.00;97921.03;4860297;29;20457;-86
2024/01/25 02:34:09;;;;;;;0.95;0.95;;;;;;;-1.84;100.00;97921.41;4843555;29;20073;-86
2024/01/25 02:36:37;;;;;;;1.00;1.00;;;;;;;-1.85;100.00;97920.59;4859470;29;20114;-87
2024/01/25 02:39:05;;;;;;;1.02;1.02;;;;;;;-1.83;100.00;97923.03;4828351;29;20160;-87
2024/01/25 02:41:32;;;;;;;0.90;0.90;;;;;;;-1.79;100.00;97911.88;4843046;29;20053;-86
2024/01/25 02:44:00;;;;;;;0.93;0.93;;;;;;;-1.77;100.00;97917.81;4843426;29;20057;-86
2024/01/25 02:46:27;;;;;;;0.98;0.98;;;;;;;-1.84;100.00;97910.84;4859503;29;20061;-86
2024/01/25 02:48:55;;;;;;;1.00;1.00;;;;;;;-1.79;100.00;97917.19;4827982;29;20053;-86
2024/01/25 02:51:29;;;;;;;1.00;1.00;;;;;;;-1.79;100.00;97911.06;4859856;29;20066;-87
2024/01/25 02:53:59;;;;;;;0.90;0.90;;;;;;;-1.79;100.00;97909.25;4885133;29;20056;-87
2024/01/25 02:56:33;;;;;;;0.75;0.75;;;;;;;-1.79;100.00;97914.53;4879517;29;20057;-87
2024/01/25 02:59:01;;;;;;;1.30;1.20;;;;;;;-1.81;100.00;97905.97;4879999;29;20118;-86
2024/01/25 03:01:37;;;;;;;1.00;1.00;;;;;;;-1.87;100.00;97909.38;4896426;29;20059;-86
2024/01/25 03:04:08;;;;;;;1.10;1.10;;;;;;;-1.87;100.00;97898.00;4896714;29;20440;-85
2024/01/25 03:06:35;;;;;;;0.90;0.90;;;;;;;-1.89;100.00;97892.06;4879298;29;20147;-87
2024/01/25 03:09:04;;;;;;;0.80;0.80;;;;;;;-1.87;100.00;97906.75;4896180;29;20139;-89
2024/01/25 03:11:31;;;;;;;1.00;1.00;;;;;;;-1.85;100.00;97901.25;4864845;29;20115;-89
2024/01/25 03:13:59;;;;;;;0.93;0.93;;;;;;;-1.87;100.00;97885.59;4879993;29;20459;-87
2024/01/25 03:16:28;;;;;;;0.80;0.80;;;;;;;-1.88;100.00;97889.22;4896331;29;20064;-87
2024/01/25 03:18:56;;;;;;;1.10;1.10;;;;;;;-1.87;100.00;97885.59;4859882;29;20145;-86
2024/01/25 03:21:24;;;;;;;0.80;0.80;;;;;;;-1.91;100.00;97870.28;4858647;29;20541;-85
2024/01/25 03:23:51;;;;;;;0.95;0.95;;;;;;;-1.92;100.00;97873.94;4859147;29;20063;-86
2024/01/25 03:26:18;;;;;;;0.90;0.90;;;;;;;-1.90;100.00;97879.84;4859039;29;20061;-84
2024/01/25 03:28:46;;;;;;;0.90;0.90;;;;;;;-1.94;100.00;97882.06;4841908;29;20054;-84
2024/01/25 03:31:13;;;;;;;1.00;1.00;;;;;;;-1.96;100.00;97876.16;4858892;29;20564;-85
2024/01/25 03:33:42;;;;;;;0.95;0.95;;;;;;;-2.04;100.00;97868.38;4842347;29;20049;-85
2024/01/25 03:36:09;;;;;;;1.20;1.20;;;;;;;-1.98;100.00;97867.59;4858520;29;20085;-86
2024/01/25 03:38:37;;;;;;;1.00;1.00;;;;;;;-1.96;100.00;97871.66;4842302;29;20136;-85
2024/01/25 03:41:04;;;;;;;0.90;0.90;;;;;;;-1.96;100.00;97881.44;4858788;29;20066;-85
2024/01/25 03:43:31;;;;;;;1.00;1.00;;;;;;;-1.98;100.00;97868.41;4858657;29;20077;-85
2024/01/25 03:46:09;;;;;;;0.80;0.80;;;;;;;-1.99;100.00;97868.59;4858579;29;20046;-85
2024/01/25 03:48:37;;;;;;;0.90;0.90;;;;;;;-1.96;100.00;97886.72;4828505;29;20535;-84
2024/01/25 03:51:05;;;;;;;1.00;1.00;;;;;;;-2.01;100.00;97867.97;4878919;29;20583;-85
2024/01/25 03:53:32;;;;;;;0.95;0.95;;;;;;;-2.02;100.00;97876.94;4895584;29;20055;-85
2024/01/25 03:56:03;;;;;;;1.00;1.00;;;;;;;-2.07;100.00;97866.91;4895317;29;20084;-87
2024/01/25 03:58:30;;;;;;;1.00;1.00;;;;;;;-2.10;100.00;97858.53;4895976;29;20071;-83
2024/01/25 04:00:58;;;;;;;0.95;0.95;;;;;;;-2.14;100.00;97852.03;4874489;29;20057;-83
2024/01/25 04:03:26;;;;;;;1.00;1.00;;;;;;;-2.11;100.00;97843.69;4841762;29;20053;-86
2024/01/25 04:05:53;;;;;;;1.05;1.05;;;;;;;-2.11;100.00;97870.94;4858158;29;20049;-88
2024/01/25 04:08:22;;;;;;;0.90;0.90;;;;;;;-2.15;100.00;97858.28;4858236;29;20508;-85
2024/01/25 04:10:49;;;;;;;1.10;1.10;;;;;;;-2.23;100.00;97851.31;4858180;29;20144;-85
2024/01/25 04:13:17;;;;;;;1.10;1.10;;;;;;;-2.19;100.00;97860.50;4858080;29;20484;-85
2024/01/25 04:15:44;;;;;;;1.10;1.10;;;;;;;-2.18;100.00;97854.22;4857891;29;20088;-83
2024/01/25 04:18:11;;;;;;;0.93;0.93;;;;;;;-2.21;100.00;97855.41;4858244;29;20113;-83
2024/01/25 04:20:41;;;;;;;0.90;0.90;;;;;;;-2.20;100.00;97859.72;4842052;29;20057;-83
2024/01/25 04:23:08;;;;;;;0.90;0.90;;;;;;;-2.22;100.00;97868.84;4861700;29;20088;-82
2024/01/25 04:25:36;;;;;;;1.00;1.00;;;;;;;-2.19;100.00;97863.16;4845390;29;20069;-83
2024/01/25 04:28:04;;;;;;;0.93;0.93;;;;;;;-2.20;100.00;97865.00;4861469;29;20060;-83
2024/01/25 04:30:32;;;;;;;1.00;1.00;;;;;;;-2.25;100.00;97862.09;4862023;29;20053;-82
2024/01/25 04:33:00;;;;;;;1.10;1.10;;;;;;;-2.23;100.00;97856.59;4862442;29;20053;-82
2024/01/25 04:35:27;;;;;;;1.10;1.10;;;;;;;-2.24;100.00;97850.50;4844743;29;20441;-82
2024/01/25 04:37:55;;;;;;;1.23;1.20;;;;;;;-2.30;100.00;97859.22;4861704;29;20063;-82
2024/01/25 04:40:22;;;;;;;1.00;1.00;;;;;;;-2.29;100.00;97860.84;4845013;29;20136;-83
2024/01/25 04:42:52;;;;;;;1.00;1.00;;;;;;;-2.30;100.00;97864.50;4860843;29;20532;-83
2024/01/25 04:45:19;;;;;;;0.98;0.98;;;;;;;-2.32;100.00;97874.44;4853615;29;20059;-83
2024/01/25 04:47:47;;;;;;;1.00;1.00;;;;;;;-2.32;100.00;97866.50;4897968;29;20052;-81
2024/01/25 04:50:14;;;;;;;0.90;0.90;;;;;;;-2.35;100.00;97868.72;4898299;29;20151;-82
2024/01/25 04:52:42;;;;;;;1.20;1.20;;;;;;;-2.36;100.00;97870.53;4881608;29;20599;-83
2024/01/25 04:55:09;;;;;;;1.00;1.00;;;;;;;-2.35;100.00;97874.81;4881492;29;20052;-82
2024/01/25 04:57:37;;;;;;;0.90;0.90;;;;;;;-2.34;100.00;97865.06;4898382;29;20064;-82
2024/01/25 05:00:05;;;;;;;1.10;1.10;;;;;;;-2.36;100.00;97869.72;4898335;29;20073;-82
2024/01/25 05:02:32;;;;;;;1.08;1.08;;;;;;;-2.38;100.00;97871.72;4898936;29;20052;-82
2024/01/25 05:05:00;;;;;;;1.00;1.00;;;;;;;-2.39;100.00;97865.63;4898330;29;20056;-81
2024/01/25 05:07:30;;;;;;;0.93;0.93;;;;;;;-2.41;100.00;97860.53;4883728;29;20155;-82
2024/01/25 05:09:58;;;;;;;1.00;1.00;;;;;;;-2.42;100.00;97856.25;4898797;29;20171;-83
2024/01/25 05:12:25;;;;;;;0.90;0.90;;;;;;;-2.41;100.00;97862.34;4863427;29;20053;-83
2024/01/25 05:14:52;;;;;;;1.00;1.00;;;;;;;-2.44;100.00;97860.09;4850929;29;20053;-83
2024/01/25 05:17:20;;;;;;;1.10;1.10;;;;;;;-2.39;100.00;97860.34;4866809;29;20061;-83
2024/01/25 05:19:47;;;;;;;1.00;1.00;;;;;;;-2.41;100.00;97857.88;4861620;29;20054;-82
2024/01/25 05:22:15;;;;;;;0.90;0.90;;;;;;;-2.43;100.00;97856.44;4860606;29;20061;-83
2024/01/25 05:24:43;;;;;;;1.05;1.05;;;;;;;-2.44;100.00;97850.34;4860640;29;20084;-83
2024/01/25 05:27:10;;;;;;;0.88;0.88;;;;;;;-2.43;100.00;97861.72;4860696;29;20057;-82
2024/01/25 05:29:40;;;;;;;1.10;1.10;;;;;;;-2.45;100.00;97853.19;4860340;29;20557;-83
2024/01/25 05:32:07;;;;;;;1.10;1.10;;;;;;;-2.45;100.00;97866.41;4844199;29;20080;-82
2024/01/25 05:34:35;;;;;;;0.90;0.90;;;;;;;-2.51;100.00;97846.81;4860699;29;20061;-83
2024/01/25 05:37:03;;;;;;;1.00;1.00;;;;;;;-2.50;100.00;97868.78;4844086;29;20057;-83
2024/01/25 05:39:30;;;;;;;0.88;0.88;;;;;;;-2.54;100.00;97855.13;4860758;29;20088;-82
2024/01/25 05:41:57;;;;;;;1.00;1.00;;;;;;;-2.54;100.00;97830.53;4875093;29;20111;-82
2024/01/25 05:44:25;;;;;;;1.00;1.00;;;;;;;-2.52;100.00;97857.59;4897696;29;20065;-82
2024/01/25 05:46:52;;;;;;;1.00;1.00;;;;;;;-2.54;100.00;97854.31;4897909;29;20075;-83
2024/01/25 05:49:20;;;;;;;0.93;0.93;;;;;;;-2.54;100.00;97862.22;4897828;29;20140;-82
2024/01/25 05:51:47;;;;;;;1.00;1.00;;;;;;;-2.53;100.00;97848.84;4897728;29;20108;-82
2024/01/25 05:54:15;;;;;;;1.02;1.02;;;;;;;-2.51;100.00;97856.56;4897324;29;20423;-82
2024/01/25 05:56:42;;;;;;;0.93;0.93;;;;;;;-2.50;100.00;97866.16;4897238;29;20120;-81
2024/01/25 05:59:09;;;;;;;1.15;1.15;;;;;;;-2.50;100.00;97852.94;4864740;29;20103;-82
2024/01/25 06:01:36;;;;;;;0.90;0.90;;;;;;;-2.49;100.00;97857.19;4897598;29;20067;-81
2024/01/25 06:04:04;;;;;;;0.82;0.82;;;;;;;-2.50;100.00;97860.88;4897168;29;20080;-82
2024/01/25 06:06:31;;;;;;;0.90;0.90;;;;;;;-2.57;100.00;97846.78;4895702;29;20060;-82
2024/01/25 06:08:59;;;;;;;1.10;1.10;;;;;;;-2.57;100.00;97852.88;4860192;29;20065;-83
2024/01/25 06:11:39;;;;;;;0.90;0.90;;;;;;;-2.54;100.00;97846.38;4864983;29;20136;-85
2024/01/25 06:14:06;;;;;;;0.80;0.80;;;;;;;-2.55;100.00;97855.31;4169443;29;10001047;-82
2024/01/25 06:16:33;;;;;;;0.80;0.80;;;;;;;-2.53;100.00;97846.22;4822424;29;20183;-84
2024/01/25 06:19:03;;;;;;;1.00;1.00;;;;;;;-2.55;100.00;97848.22;4825879;29;20076;-84
2024/01/25 06:21:31;;;;;;;0.98;0.98;;;;;;;-2.53;100.00;97855.94;4822049;29;20131;-80
2024/01/25 06:23:58;;;;;;;0.98;0.98;;;;;;;-2.56;100.00;97849.19;4822481;29;20150;-85
2024/01/25 06:26:25;;;;;;;1.10;1.10;;;;;;;-2.50;100.00;97850.28;4807486;29;20054;-82
2024/01/25 06:28:52;;;;;;;1.10;1.10;;;;;;;-2.43;100.00;97849.34;4823809;29;20152;-82
2024/01/25 06:31:20;;;;;;;0.98;0.98;;;;;;;-2.42;100.00;97868.66;4809952;29;20150;-83
2024/01/25 06:33:50;;;;;;;1.00;1.00;;;;;;;-2.48;100.00;97857.03;4820292;29;20054;-83
2024/01/25 06:36:20;;;;;;;0.98;0.98;;;;;;;-2.49;100.00;97851.91;4817178;29;20110;-83
2024/01/25 06:38:47;;;;;;;0.90;0.90;;;;;;;-2.44;100.00;97836.31;4801228;29;20078;-82
2024/01/25 06:41:17;;;;;;;0.90;0.90;;;;;;;-2.46;100.00;97854.19;4833625;29;20085;-83
2024/01/25 06:43:45;;;;;;;1.00;1.00;;;;;;;-2.46;100.00;97846.25;4827403;29;20110;-81
2024/01/25 06:46:12;;;;;;;0.90;0.90;;;;;;;-2.44;100.00;97849.53;4830341;29;20053;-82
2024/01/25 06:48:39;;;;;;;0.90;0.90;;;;;;;-2.45;100.00;97840.78;4845180;29;20457;-79
2024/01/25 06:51:07;;;;;;;1.00;1.00;;;;;;;-2.38;100.00;97843.50;4863935;29;20064;-82
2024/01/25 06:53:35;;;;;;;0.90;0.90;;;;;;;-2.41;100.00;97851.78;4862908;29;20057;-81
2024/01/25 06:56:02;;;;;;;0.90;0.90;;;;;;;-2.46;100.00;97844.41;4863900;29;20209;-81
2024/01/25 06:58:29;;;;;;;1.00;1.00;;;;;;;-2.46;100.00;97854.97;4863727;29;20057;-79
2024/01/25 07:00:57;;;;;;;0.88;0.88;;;;;;;-2.44;100.00;97857.44;4860902;29;20061;-85
2024/01/25 07:03:25;;;;;;;1.10;1.10;;;;;;;-2.44;100.00;97854.81;4845880;29;20049;-85
2024/01/25 07:05:53;;;;;;;1.05;1.05;;;;;;;-2.44;100.00;97862.72;4846536;29;20045;-86
2024/01/25 07:08:21;;;;;;;0.85;0.85;;;;;;;-2.48;100.00;97864.09;4848233;29;20053;-82
2024/01/25 07:10:48;;;;;;;1.00;1.00;;;;;;;-2.48;100.00;97853.53;4864794;29;20057;-86
2024/01/25 07:13:20;;;;;;;0.98;0.98;;;;;;;-2.46;100.00;97867.38;4864271;29;20144;-80
2024/01/25 07:15:48;;;;;;;1.00;1.00;;;;;;;-2.42;100.00;97861.53;4864675;29;20057;-83
2024/01/25 07:18:15;;;;;;;1.00;1.00;;;;;;;-2.43;100.00;97857.28;4854958;29;20057;-81
2024/01/25 07:20:43;;;;;;;0.95;0.95;;;;;;;-2.40;100.00;97848.16;4827817;29;20073;-80
2024/01/25 07:23:11;;;;;;;1.00;1.00;;;;;;;-2.39;100.00;97860.34;4849927;29;20571;-84
2024/01/25 07:25:38;;;;;;;0.90;0.90;;;;;;;-2.37;100.00;97858.34;4858319;29;20156;-82
2024/01/25 07:28:06;;;;;;;1.00;1.00;;;;;;;-2.38;100.00;97855.88;4856196;29;20117;-82
2024/01/25 07:30:34;;;;;;;0.90;0.90;;;;;;;-2.34;100.00;97847.38;4859391;29;20053;-80
2024/01/25 07:33:01;;;;;;;1.10;1.10;;;;;;;-2.28;100.00;97846.63;4861875;29;20059;-82
2024/01/25 07:35:28;;;;;;;1.10;1.10;;;;;;;-2.24;100.00;97842.59;4860270;29;20057;-85
2024/01/25 07:37:56;;;;;;;0.90;0.90;;;;;;;-2.23;100.00;97853.97;4863872;29;20121;-85
2024/01/25 07:40:25;;;;;;;1.00;1.00;;;;;;;-2.23;100.00;97849.53;4862904;29;20055;-80
2024/01/25 07:42:53;;;;;;;1.00;1.00;;;;;;;-2.24;100.00;97849.69;4848947;29;20057;-87
2024/01/25 07:45:21;;;;;;;0.98;0.98;;;;;;;-2.25;100.00;97843.59;4861479;29;20054;-79
2024/01/25 07:47:49;;;;;;;1.00;1.00;;;;;;;-2.22;100.00;97851.16;4858216;29;20056;-83
2024/01/25 07:50:22;;;;;;;1.00;1.00;;;;;;;-2.19;100.00;97855.22;4862012;29;20057;-85
2024/01/25 07:52:50;;;;;;;1.25;1.17;;;;;;;-2.17;100.00;97850.56;4861089;29;20056;-83
2024/01/25 07:55:18;;;;;;;0.80;0.80;;;;;;;-2.10;100.00;97848.81;4864320;29;20200;-81
2024/01/25 07:57:45;;;;;;;1.08;1.08;;;;;;;-1.99;100.00;97844.81;4865504;29;20135;-80
2024/01/25 08:00:13;;;;;;;1.02;1.02;;;;;;;-1.93;99.92;97854.59;4864746;29;20061;-83
2024/01/25 08:02:41;;;;;;;1.02;1.02;;;;;;;-1.85;99.93;97854.47;4840618;29;20548;-84
2024/01/25 08:05:09;;;;;;;1.02;1.02;;;;;;;-1.77;99.47;97841.09;4875167;29;20057;-83
2024/01/25 08:07:37;;;;;;;1.05;1.05;;;;;;;-1.77;98.56;97854.31;4891619;29;20112;-84
2024/01/25 08:10:08;;;;;;;1.13;1.13;;;;;;;-1.79;98.00;97837.81;4872795;29;20533;-79
2024/01/25 08:12:35;;;;;;;1.10;1.10;;;;;;;-1.72;97.89;97848.47;4852249;29;20406;-78
2024/01/25 08:15:07;;;;;;;1.00;1.00;;;;;;;-1.75;97.58;97819.72;4872366;29;20508;-83
2024/01/25 08:17:36;;;;;;;1.10;1.10;;;;;;;-1.66;97.32;97837.09;4825624;29;20238;-79
2024/01/25 08:20:05;;;;;;;1.10;1.10;;;;;;;-1.56;96.89;97847.31;4840633;29;20061;-82
2024/01/25 08:22:33;;;;;;;1.10;1.10;;;;;;;-1.60;96.26;97843.41;4833820;29;20057;-85
2024/01/25 08:25:00;;;;;;;1.10;1.10;;;;;;;-1.61;96.35;97847.91;4846090;29;20517;-79
2024/01/25 08:27:30;;;;;;;1.10;1.10;;;;;;;-1.53;95.97;97845.09;4867046;29;20512;-79
2024/01/25 08:29:58;;;;;;;1.00;1.00;;;;;;;-1.65;95.68;97835.25;4850870;29;20123;-82
2024/01/25 08:32:25;;;;;;;0.98;0.98;;;;;;;-1.64;95.80;97834.25;4867777;29;20049;-79
2024/01/25 08:34:52;;;;;;;1.00;1.00;;;;;;;-1.62;96.00;97850.72;4847955;29;20051;-79
2024/01/25 08:37:21;;;;;;;1.08;1.08;;;;;;;-1.66;95.39;97833.63;4868159;29;20080;-87
2024/01/25 08:39:50;;;;;;;1.17;1.17;;;;;;;-1.67;95.23;97842.56;4878240;29;20192;-90
2024/01/25 08:42:18;;;;;;;1.10;1.10;;;;;;;-1.72;95.20;97837.88;4868100;29;20144;-84
2024/01/25 08:44:49;;;;;;;0.80;0.80;;;;;;;-1.84;94.58;97842.88;4857809;29;20068;-88
2024/01/25 08:47:18;;;;;;;1.00;1.00;;;;;;;-1.88;94.93;97844.25;4837356;29;20076;-87
2024/01/25 08:49:45;;;;;;;1.00;1.00;;;;;;;-2.02;94.89;97826.69;4839157;29;20077;-91
2024/01/25 08:52:15;;;;;;;1.17;1.13;;;;;;;-2.02;95.38;97826.69;4853093;29;20053;-86
2024/01/25 08:54:44;;;;;;;1.00;1.00;;;;;;;-1.93;95.15;97843.22;4835908;29;20084;-89
2024/01/25 08:57:15;;;;;;;1.00;1.00;;;;;;;-1.98;95.20;97841.97;4816730;29;20050;-87
2024/01/25 08:59:43;;;;;;;1.10;1.10;;;;;;;-1.92;95.09;97837.75;4849813;29;20083;-91
2024/01/25 09:02:16;;;;;;;0.90;0.90;;;;;;;-2.00;95.00;97824.66;4856770;29;20133;-88
2024/01/25 09:04:43;;;;;;;1.10;1.10;;;;;;;-2.05;95.25;97817.31;4848182;29;20164;-90
2024/01/25 09:07:12;;;;;;;0.90;0.90;;;;;;;-1.94;95.46;97836.31;4839462;29;20186;-88
2024/01/25 09:09:40;;;;;;;0.90;0.90;;;;;;;-1.91;95.36;97825.34;4826894;29;20064;-83
2024/01/25 09:12:16;;;;;;;1.08;1.08;;;;;;;-1.95;95.23;97830.19;4848962;29;20065;-86
2024/01/25 09:14:47;;;;;;;0.88;0.88;;;;;;;-1.92;95.38;97827.16;4875014;29;20250;-89
2024/01/25 09:17:21;;;;;;;0.90;0.90;;;;;;;-1.86;95.25;97834.31;4872615;29;20053;-90
2024/01/25 09:20:07;;;;;;;1.00;1.00;;;;;;;-1.91;95.28;97826.16;4858705;29;20056;-84
2024/01/25 09:22:38;;;;;;;1.00;1.00;;;;;;;-1.96;95.03;97828.56;4856436;29;20117;-88
2024/01/25 09:25:08;;;;;;;1.00;1.00;;;;;;;-1.89;94.90;97840.00;4867586;29;20053;-87
2024/01/25 09:27:38;;;;;;;1.00;1.00;;;;;;;-1.97;94.90;97835.69;4852614;29;20068;-87
2024/01/25 09:30:06;;;;;;;0.90;0.90;;;;;;;-1.90;94.87;97848.13;4852255;29;20077;-85
2024/01/25 09:32:34;;;;;;;1.00;1.00;;;;;;;-1.90;94.89;97837.53;4830550;29;20448;-88
2024/01/25 09:35:05;;;;;;;1.10;1.10;;;;;;;-1.81;94.69;97829.25;4869426;29;20056;-78
2024/01/25 09:37:36;;;;;;;1.00;1.00;;;;;;;-1.71;94.58;97823.63;4855307;29;20048;-83
2024/01/25 09:40:04;;;;;;;0.90;0.90;;;;;;;-1.58;94.34;97828.97;4866568;29;20067;-82
2024/01/25 09:42:32;;;;;;;0.90;0.90;;;;;;;-1.67;93.91;97813.47;4865009;29;20046;-86
2024/01/25 09:45:00;;;;;;;0.90;0.90;;;;;;;-1.56;93.87;97808.44;4528971;29;9999934;-85
2024/01/25 09:47:29;;;;;;;1.10;1.10;;;;;;;-1.44;93.70;97827.22;4864113;29;20053;-83
2024/01/25 09:49:58;;;;;;;0.80;0.80;;;;;;;-1.46;93.33;97826.59;4858729;29;20050;-83
2024/01/25 09:52:27;;;;;;;0.95;0.95;;;;;;;-1.46;93.25;97828.44;4863350;29;20049;-80
2024/01/25 09:54:56;;;;;;;1.10;1.10;;;;;;;-1.52;93.33;97819.44;4850043;29;20069;-78
2024/01/25 09:57:28;;;;;;;1.10;1.10;;;;;;;-1.54;93.44;97811.72;4846331;29;20471;-83
2024/01/25 09:59:55;;;;;;;0.93;0.93;;;;;;;-1.54;93.11;97816.19;4865495;29;20152;-81
2024/01/25 10:02:23;;;;;;;1.00;1.00;;;;;;;-1.59;93.24;97813.31;4849494;29;20056;-81
2024/01/25 10:04:54;;;;;;;0.90;0.90;;;;;;;-1.67;93.63;97805.53;4833477;29;20604;-83
2024/01/25 10:07:46;;;;;;;1.02;1.02;;;;;;;-1.53;93.72;97808.03;4865221;29;20057;-79
2024/01/25 10:10:14;;;;;;;1.10;1.10;;;;;;;-1.39;93.93;97808.13;4857445;29;20060;-81
2024/01/25 10:12:42;;;;;;;0.90;0.90;;;;;;;-1.29;93.86;97805.94;4864842;29;20056;-83
2024/01/25 10:15:11;;;;;;;1.00;1.00;;;;;;;-1.27;93.60;97803.06;4846795;29;20424;-79
2024/01/25 10:17:39;;;;;;;1.00;1.00;;;;;;;-1.15;93.49;97804.13;4851423;29;20061;-83
2024/01/25 10:20:27;;;;;;;1.10;1.10;;;;;;;-1.09;93.21;97819.19;4843237;29;20060;-85
2024/01/25 10:22:58;;;;;;;1.00;1.00;;;;;;;-1.20;93.38;97810.00;4843409;29;20133;-81
2024/01/25 10:25:27;;;;;;;1.10;1.10;;;;;;;-1.20;93.37;97806.56;4845942;29;20053;-82
2024/01/25 10:27:55;;;;;;;1.00;1.00;;;;;;;-1.13;93.67;97810.84;4865896;29;20053;-79
2024/01/25 10:30:24;;;;;;;1.00;1.00;;;;;;;-1.10;92.95;97807.00;4865203;29;20144;-80
2024/01/25 10:32:51;;;;;;;0.93;0.93;;;;;;;-1.03;93.01;97799.88;4846802;29;20054;-81
2024/01/25 10:35:20;;;;;;;1.00;1.00;;;;;;;-0.98;92.69;97802.75;4859951;29;20053;-85
2024/01/25 10:37:52;;;;;;;1.10;1.10;;;;;;;-0.89;92.56;97806.84;4844643;29;20505;-80
2024/01/25 10:40:20;;;;;;;1.10;1.10;;;;;;;-0.92;92.61;97809.88;4863645;29;20056;-80
2024/01/25 10:42:48;;;;;;;1.10;1.10;;;;;;;-1.00;92.20;97812.72;4863623;29;20429;-84
2024/01/25 10:45:16;;;;;;;0.82;0.82;;;;;;;-1.14;92.53;97806.59;4864302;29;20206;-82
2024/01/25 10:47:48;;;;;;;0.98;0.98;;;;;;;-1.26;92.86;97817.94;4852492;29;20105;-81
2024/01/25 10:50:16;;;;;;;1.00;1.00;;;;;;;-1.31;93.39;97805.31;4868060;29;20064;-83
2024/01/25 10:52:45;;;;;;;0.90;0.90;;;;;;;-1.27;93.52;97811.81;4861931;29;20131;-83
2024/01/25 10:55:12;;;;;;;1.00;1.00;;;;;;;-1.39;93.73;97816.06;4864172;29;20067;-85
2024/01/25 10:57:45;;;;;;;1.00;1.00;;;;;;;-1.45;94.16;97820.28;4850861;29;20084;-82
2024/01/25 11:00:15;;;;;;;1.05;1.05;;;;;;;-1.48;94.45;97814.59;4858489;29;20065;-84
2024/01/25 11:02:45;;;;;;;1.00;1.00;;;;;;;-1.43;94.93;97818.28;4860827;29;20057;-81
2024/01/25 11:05:14;;;;;;;1.10;1.10;;;;;;;-1.49;95.04;97811.13;4848236;29;20054;-80
2024/01/25 11:07:48;;;;;;;0.80;0.80;;;;;;;-1.44;95.19;97814.00;4864330;29;20132;-82
2024/01/25 11:10:19;;;;;;;1.10;1.10;;;;;;;-1.46;95.23;97812.56;4868244;29;20594;-82
2024/01/25 11:12:58;;;;;;;0.85;0.85;;;;;;;-1.54;95.42;97818.84;4865058;29;20101;-83
2024/01/25 11:15:45;;;;;;;0.80;0.80;;;;;;;-1.56;95.66;97812.91;4849609;29;20140;-84
2024/01/25 11:18:13;;;;;;;1.00;1.00;;;;;;;-1.65;95.98;97814.91;4868363;29;20053;-83
2024/01/25 11:20:41;;;;;;;1.00;1.00;;;;;;;-1.65;96.63;97799.03;4866673;29;20053;-83
2024/01/25 11:23:09;;;;;;;1.00;1.00;;;;;;;-1.59;96.76;97810.69;4849350;29;20146;-82
2024/01/25 11:25:37;;;;;;;0.85;0.85;;;;;;;-1.63;96.94;97796.19;4841207;29;20540;-83
2024/01/25 11:28:11;;;;;;;1.00;1.00;;;;;;;-1.62;96.70;97801.31;4864458;29;20061;-84
2024/01/25 11:30:38;;;;;;;0.90;0.90;;;;;;;-1.70;96.82;97817.31;4867971;29;20061;-85
2024/01/25 11:33:09;;;;;;;0.88;0.88;;;;;;;-1.73;96.79;97812.41;4864657;29;20053;-83
2024/01/25 11:35:37;;;;;;;1.00;1.00;;;;;;;-1.72;96.89;97814.06;4865756;29;20200;-83